SLC weather

Salt Lake City International Airport
Salt Lake City, Utah, United States

Public forecast

Using degrees Fahrenheit for public forecast. Weather courtesy of forecast.io.

METAR (pilot weather report)

Retrieved 2018/06/22 21:54 UTC (17 minutes ago):

KSLC 222154Z 28004G15KT 10SM FEW220 28/04 A3004 RMK AO2 SLP118 T02780044

TAF (pilot weather forecast)

Retrieved 2018/06/22 18:34 UTC (4 hours ago):

TAF KSLC 221732Z 2218/2324 32008KT P6SM FEW080 FEW120 FM230300 15005KT P6SM FEW120 SCT200 FM231600 30012KT P6SM SCT080